KLUK/LUK METAR and TAF weather

Enter ICAO airport designator
Station Type Date Time Source
KLUK METAR 2019/02/23 23:38 UTC NOAA

KLUK 232338Z 00000KT 4SM -RA BR BKN012 BKN019 OVC065 11/09 A2987 RMK AO2 P0005 T01110094


Station Type Date Time Source
KLUK Decoded METAR 2019/02/23 23:38 UTC NOAA

CINCINNATI MUN LUNKEN FLD, OH, United States (KLUK) 39-06N 84-25W 155M
Feb 23, 2019 - 06:38 PM EST / 2019.02.23 2338 UTC
Wind: Calm:0
Visibility: 4 mile(s):0
Sky conditions: overcast
Weather: light rain; mist
Precipitation last hour: 0.05 inches
Temperature: 52.0 F (11.1 C)
Dew Point: 48.9 F (9.4 C)
Relative Humidity: 89%
Pressure (altimeter): 29.87 in. Hg (1011 hPa)
ob: KLUK 232338Z 00000KT 4SM -RA BR BKN012 BKN019 OVC065 11/09 A2987 RMK AO2 P0005 T01110094
cycle: 23

Station Type Date Time Source
KLUK TAF 2019/02/23 21:30 UTC NOAA

TAF
AMD KLUK 232127Z 2321/2418 15008KT P6SM -SHRA OVC012
FM240100 16011G25KT P6SM -SHRA VCTS OVC015CB WS020/20050KT
FM240500 22016G34KT P6SM -SHRA OVC015 WS020/21050KT
FM240900 24020G38KT P6SM OVC028
FM241200 25023G40KT P6SM BKN030
FM241700 26024G37KT P6SM BKN060


Example: see airport list